Time;durP1;ratioP1;P1;durP2;ratioP2;P2;SDS_P1;SDS_P2;PMS_P1;PMS_P2;Temp;Humidity;BMP_temperature;BMP_pressure;BME280_temperature;BME280_humidity;BME280_pressure;Samples;Min_cycle;Max_cycle;Signal;HPM_P1;HPM_P2
2021/03/27 00:02:26;;;;;;;9.45;5.95;;;;;;;10.87;57.23;98675.34;5053215;28;20087;-60
2021/03/27 00:05:05;;;;;;;10.98;6.53;;;;;;;10.91;57.10;98679.22;5053673;28;20095;-61
2021/03/27 00:07:40;;;;;;;8.02;6.13;;;;;;;10.86;57.05;98671.09;5053795;28;20045;-61
2021/03/27 00:10:16;;;;;;;8.05;5.88;;;;;;;10.88;57.17;98671.69;5052469;28;20048;-61
2021/03/27 00:12:48;;;;;;;8.13;6.22;;;;;;;10.90;57.15;98672.31;5053614;28;20432;-61
2021/03/27 00:15:21;;;;;;;8.50;5.93;;;;;;;10.90;57.10;98677.63;5053611;28;20053;-62
2021/03/27 00:17:52;;;;;;;9.90;7.13;;;;;;;10.94;57.05;98688.59;5053556;28;20052;-61
2021/03/27 00:20:24;;;;;;;8.45;6.20;;;;;;;10.94;57.08;98688.59;5053635;28;20044;-61
2021/03/27 00:22:59;;;;;;;12.65;6.75;;;;;;;10.95;57.09;98691.06;5053690;28;20116;-61
2021/03/27 00:25:28;;;;;;;10.38;6.57;;;;;;;10.93;56.88;98681.66;5053424;28;20040;-61
2021/03/27 00:28:07;;;;;;;8.32;6.40;;;;;;;10.89;56.92;98679.41;5053588;28;20086;-61
2021/03/27 00:30:40;;;;;;;9.07;6.30;;;;;;;10.86;57.12;98679.84;5053662;28;20049;-61
2021/03/27 00:33:09;;;;;;;9.80;6.05;;;;;;;10.87;56.90;98688.56;5053407;28;20431;-61
2021/03/27 00:35:41;;;;;;;8.10;5.85;;;;;;;10.91;56.99;98673.94;5053391;28;20040;-61
2021/03/27 00:38:14;;;;;;;8.25;6.85;;;;;;;10.92;57.05;98675.56;5053220;28;20049;-61
2021/03/27 00:40:44;;;;;;;9.48;5.72;;;;;;;10.96;57.00;98668.88;5053223;28;20045;-61
2021/03/27 00:43:15;;;;;;;10.82;6.30;;;;;;;10.96;56.95;98670.69;5053243;28;20045;-60
2021/03/27 00:45:44;;;;;;;9.13;5.82;;;;;;;10.97;56.88;98665.22;5053073;28;20048;-60
2021/03/27 00:48:16;;;;;;;8.82;6.38;;;;;;;10.99;56.82;98671.13;5053496;28;20065;-61
2021/03/27 00:50:52;;;;;;;6.57;5.60;;;;;;;11.01;56.61;98668.28;5052082;28;20049;-61
2021/03/27 00:53:28;;;;;;;10.43;6.55;;;;;;;11.00;56.88;98659.53;5051650;28;20128;-61
2021/03/27 00:55:59;;;;;;;8.18;5.55;;;;;;;11.01;56.69;98668.28;5051535;28;20053;-61
2021/03/27 00:58:30;;;;;;;8.57;5.80;;;;;;;10.96;56.97;98665.41;5051402;28;20084;-61
2021/03/27 01:01:01;;;;;;;6.90;5.60;;;;;;;10.97;56.70;98665.22;5051360;28;20045;-61
2021/03/27 01:03:53;;;;;;;9.38;5.38;;;;;;;10.98;56.96;98663.38;5052790;28;20458;-60
2021/03/27 01:06:43;;;;;;;5.72;5.00;;;;;;;11.03;56.88;98668.91;5053208;28;20067;-61
2021/03/27 01:09:35;;;;;;;5.75;5.15;;;;;;;10.99;57.10;98675.59;5021623;28;20465;-61
2021/03/27 01:12:28;;;;;;;8.10;5.22;;;;;;;11.04;56.89;98681.09;5052680;28;20047;-61
2021/03/27 01:15:00;;;;;;;7.95;5.25;;;;;;;11.01;56.99;98674.38;5052546;28;20049;-61
2021/03/27 01:17:35;;;;;;;8.32;5.10;;;;;;;11.02;57.03;98668.09;5051113;28;20134;-60
2021/03/27 01:20:09;;;;;;;5.70;5.00;;;;;;;11.01;56.96;98681.50;5052649;28;20426;-61
2021/03/27 01:22:36;;;;;;;6.85;4.80;;;;;;;11.03;56.91;98677.66;5052491;28;20045;-61
2021/03/27 01:25:07;;;;;;;6.80;5.30;;;;;;;11.02;57.13;98681.31;5050993;28;20049;-61
2021/03/27 01:27:40;;;;;;;6.53;5.25;;;;;;;11.04;57.11;98683.75;5052356;28;20072;-60
2021/03/27 01:30:15;;;;;;;8.82;5.03;;;;;;;11.06;56.98;98679.91;5052464;28;20045;-61
2021/03/27 01:32:46;;;;;;;9.20;4.93;;;;;;;11.12;57.01;98681.75;5051094;28;20052;-61
2021/03/27 01:35:19;;;;;;;6.25;4.78;;;;;;;11.14;57.35;98685.03;5052235;28;20048;-61
2021/03/27 01:37:49;;;;;;;7.18;5.20;;;;;;;11.13;57.31;98680.72;5052190;28;20041;-61
2021/03/27 01:40:27;;;;;;;6.32;5.30;;;;;;;11.14;57.59;98685.03;5052259;28;20059;-61
2021/03/27 01:43:04;;;;;;;6.20;4.68;;;;;;;11.13;57.37;98687.84;5056534;28;20040;-59
2021/03/27 01:45:58;;;;;;;11.02;5.30;;;;;;;11.06;58.47;98708.16;5070007;28;20044;-60
2021/03/27 01:48:44;;;;;;;6.85;5.55;;;;;;;10.96;60.76;98718.31;5035020;28;20052;-60
2021/03/27 01:51:26;;;;;;;7.50;5.88;;;;;;;10.82;62.30;98731.47;5055447;28;20045;-61
2021/03/27 01:53:59;;;;;;;8.38;5.80;;;;;;;10.75;62.54;98743.03;5053563;28;20064;-61
2021/03/27 01:56:36;;;;;;;7.32;5.47;;;;;;;10.57;63.07;98744.34;5052364;28;20051;-61
2021/03/27 01:59:09;;;;;;;7.20;5.68;;;;;;;10.43;63.95;98768.25;5052212;28;20045;-61
2021/03/27 02:01:38;;;;;;;9.60;5.33;;;;;;;10.27;64.01;98761.41;5052533;28;20064;-63
2021/03/27 02:04:09;;;;;;;8.15;5.53;;;;;;;10.14;63.80;98780.56;5051402;28;20290;-61
2021/03/27 02:06:42;;;;;;;6.07;4.85;;;;;;;10.01;63.71;98786.56;5052714;28;20411;-60
2021/03/27 02:09:16;;;;;;;7.30;5.63;;;;;;;10.04;63.77;98799.41;5052170;28;20040;-62
2021/03/27 02:11:53;;;;;;;;;;;;;;;9.94;63.00;98809.44;5052558;28;20079;-61
2021/03/27 02:14:29;;;;;;;5.30;3.15;;;;;;;9.88;62.49;98818.94;5051800;28;19927;-62
2021/03/27 02:16:59;;;;;;;4.00;2.97;;;;;;;9.78;62.57;98807.03;5050697;28;20123;-59
2021/03/27 02:20:16;;;;;;;4.25;3.20;;;;;;;9.72;62.12;98811.25;5051646;28;20064;-60
2021/03/27 02:22:54;;;;;;;4.75;2.60;;;;;;;9.70;62.12;98799.25;5052106;28;20414;-60
2021/03/27 02:25:48;;;;;;;2.30;2.10;;;;;;;9.58;61.69;98799.72;5054217;28;20044;-61
2021/03/27 02:28:31;;;;;;;2.85;2.05;;;;;;;9.35;62.06;98807.78;5055797;28;20538;-60
2021/03/27 02:31:06;;;;;;;3.17;2.05;;;;;;;9.30;62.04;98827.78;5055864;28;20045;-60
2021/03/27 02:33:39;;;;;;;1.60;1.42;;;;;;;9.22;61.15;98841.91;5055530;28;20487;-60
2021/03/27 02:36:35;;;;;;;1.58;1.20;;;;;;;9.13;59.87;98853.53;5055397;28;20051;-60
2021/03/27 02:39:13;;;;;;;1.52;0.90;;;;;;;9.04;59.32;98865.19;5042669;28;20065;-60
2021/03/27 02:41:52;;;;;;;1.25;1.15;;;;;;;8.95;59.47;98864.47;5055686;28;20041;-60
2021/03/27 02:44:25;;;;;;;0.60;0.60;;;;;;;8.91;58.83;98879.81;5055334;28;20045;-60
2021/03/27 02:46:57;;;;;;;0.97;0.80;;;;;;;8.77;58.74;98882.41;5055577;28;20041;-60
2021/03/27 02:49:35;;;;;;;0.75;0.50;;;;;;;8.63;58.90;98887.47;5055385;28;20052;-60
2021/03/27 02:52:11;;;;;;;1.67;0.80;;;;;;;8.60;59.03;98898.38;5055227;28;20051;-60
2021/03/27 02:54:48;;;;;;;0.73;0.70;;;;;;;8.56;59.12;98906.81;5055154;28;20052;-60
2021/03/27 02:57:21;;;;;;;0.65;0.65;;;;;;;8.50;59.37;98937.34;5055244;28;20063;-60
2021/03/27 02:59:55;;;;;;;0.50;0.50;;;;;;;8.40;59.62;98936.72;5054887;28;20052;-60
2021/03/27 03:02:30;;;;;;;0.85;0.75;;;;;;;8.29;60.56;98929.22;5055060;28;20395;-60
2021/03/27 03:05:06;;;;;;;0.70;0.70;;;;;;;8.19;61.18;98939.97;5055115;28;20037;-60
2021/03/27 03:07:36;;;;;;;0.80;0.80;;;;;;;7.98;61.55;98948.47;5054908;28;20053;-60
2021/03/27 03:10:18;;;;;;;1.58;0.82;;;;;;;7.80;62.56;98972.41;5054904;28;20049;-60
2021/03/27 03:12:58;;;;;;;2.20;0.90;;;;;;;7.68;62.68;98982.50;5054945;28;20041;-60
2021/03/27 03:15:32;;;;;;;0.70;0.70;;;;;;;7.61;62.80;98986.78;5054620;28;20067;-60
2021/03/27 03:18:08;;;;;;;1.90;0.70;;;;;;;7.57;63.04;98992.56;5054718;28;20063;-60
2021/03/27 03:20:46;;;;;;;0.77;0.75;;;;;;;7.51;63.22;98993.22;5054685;28;20048;-61
2021/03/27 03:23:21;;;;;;;1.65;0.60;;;;;;;7.52;63.02;99014.09;5053469;28;20041;-60
2021/03/27 03:25:54;;;;;;;0.70;0.70;;;;;;;7.58;62.72;99010.78;5054527;28;20067;-60
2021/03/27 03:28:30;;;;;;;1.15;0.70;;;;;;;7.56;63.02;99007.53;5054463;28;20055;-60
2021/03/27 03:31:15;;;;;;;0.70;0.50;;;;;;;7.56;62.50;99015.41;5054549;28;20041;-60
2021/03/27 03:34:00;;;;;;;0.65;0.60;;;;;;;7.47;62.36;99016.44;5053153;28;20045;-60
2021/03/27 03:36:35;;;;;;;1.15;0.60;;;;;;;7.32;62.67;99011.00;5051737;28;20523;-60
2021/03/27 03:39:20;;;;;;;0.57;0.57;;;;;;;7.30;63.04;99022.66;5054290;28;20051;-60
2021/03/27 03:41:54;;;;;;;1.10;0.90;;;;;;;7.29;62.81;99036.81;5054532;28;20041;-60
2021/03/27 03:44:34;;;;;;;0.52;0.52;;;;;;;7.36;62.79;99057.03;5054141;28;20410;-59
2021/03/27 03:47:08;;;;;;;0.55;0.55;;;;;;;7.19;62.64;99066.75;5054259;28;20060;-60
2021/03/27 03:50:02;;;;;;;0.60;0.60;;;;;;;7.13;62.21;99079.72;5054086;28;20053;-60
2021/03/27 03:52:40;;;;;;;1.55;0.50;;;;;;;7.04;62.46;99084.13;5054248;28;20045;-59
2021/03/27 03:55:15;;;;;;;0.40;0.40;;;;;;;6.97;62.24;99092.84;5054488;28;20140;-60
2021/03/27 03:57:59;;;;;;;1.13;0.90;;;;;;;6.91;61.75;99097.75;5053144;28;20072;-60
2021/03/27 04:00:30;;;;;;;0.67;0.53;;;;;;;6.80;62.38;99099.88;5054094;28;20135;-60
2021/03/27 04:03:11;;;;;;;0.63;0.63;;;;;;;6.74;62.19;99109.22;5054003;28;20044;-60
2021/03/27 04:05:42;;;;;;;1.05;0.52;;;;;;;6.69;62.40;99135.13;5054005;28;20059;-60
2021/03/27 04:08:17;;;;;;;0.40;0.40;;;;;;;6.67;62.63;99130.06;5053821;28;20055;-60
2021/03/27 04:10:53;;;;;;;0.70;0.70;;;;;;;6.57;63.57;99133.78;5053893;28;20064;-61
2021/03/27 04:13:26;;;;;;;2.43;0.90;;;;;;;6.49;63.88;99149.50;5053779;28;20037;-61
2021/03/27 04:15:56;;;;;;;1.20;1.10;;;;;;;6.35;64.28;99151.75;5053662;28;20045;-60
2021/03/27 04:18:33;;;;;;;1.63;1.20;;;;;;;6.33;64.81;99156.34;5053540;28;20044;-61
2021/03/27 04:21:07;;;;;;;1.50;1.40;;;;;;;6.40;64.72;99157.34;5053604;28;20048;-60
2021/03/27 04:23:42;;;;;;;3.58;2.10;;;;;;;6.45;64.68;99167.41;5053993;28;20045;-60
2021/03/27 04:26:28;;;;;;;2.90;2.53;;;;;;;6.45;64.73;99185.78;5053541;28;20040;-60
2021/03/27 04:29:16;;;;;;;2.75;2.50;;;;;;;6.37;64.74;99183.13;5051806;28;20152;-61
2021/03/27 04:31:48;;;;;;;3.40;2.75;;;;;;;6.36;64.81;99192.78;5053363;28;20120;-60
2021/03/27 04:34:23;;;;;;;3.75;2.90;;;;;;;6.35;64.61;99201.66;5053410;28;20483;-60
2021/03/27 04:37:02;;;;;;;2.63;2.42;;;;;;;6.34;64.00;99199.19;5053668;28;20041;-60
2021/03/27 04:39:37;;;;;;;1.98;1.88;;;;;;;6.27;64.20;99200.78;5052206;28;20060;-60
2021/03/27 04:42:12;;;;;;;2.50;2.15;;;;;;;6.28;64.18;99205.88;5053274;28;20056;-60
2021/03/27 04:44:46;;;;;;;2.63;1.50;;;;;;;6.33;63.80;99208.06;5051739;28;20048;-60
2021/03/27 04:47:20;;;;;;;2.33;1.80;;;;;;;6.26;63.44;99223.59;5052970;28;20041;-59
2021/03/27 04:49:54;;;;;;;2.53;2.17;;;;;;;6.13;64.60;99238.94;5053059;28;20053;-61
2021/03/27 04:52:35;;;;;;;4.32;2.45;;;;;;;5.93;65.81;99233.84;5053207;28;20479;-61
2021/03/27 04:55:21;;;;;;;2.92;2.63;;;;;;;6.04;66.17;99232.81;5053018;28;20527;-61
2021/03/27 04:58:13;;;;;;;3.15;2.53;;;;;;;6.01;65.96;99234.91;5053118;28;20045;-61
2021/03/27 05:00:52;;;;;;;3.75;2.92;;;;;;;6.04;66.02;99251.19;5053078;28;20048;-61
2021/03/27 05:03:27;;;;;;;5.55;3.22;;;;;;;6.15;65.99;99260.59;5053373;28;20045;-61
2021/03/27 05:05:58;;;;;;;3.42;3.13;;;;;;;6.10;66.07;99258.44;5051441;28;20083;-61
2021/03/27 05:09:02;;;;;;;5.82;3.78;;;;;;;6.06;66.15;99277.25;5052839;28;20045;-61
2021/03/27 05:11:42;;;;;;;6.70;4.43;;;;;;;6.02;65.86;99274.09;5052910;28;20049;-60
2021/03/27 05:14:22;;;;;;;5.30;4.25;;;;;;;6.03;65.79;99288.88;5052831;28;20503;-60
2021/03/27 05:16:58;;;;;;;5.65;4.53;;;;;;;6.08;65.45;99286.63;5052957;28;20040;-61
2021/03/27 05:19:35;;;;;;;5.50;4.90;;;;;;;6.05;65.58;99294.81;5051351;28;20053;-61
2021/03/27 05:22:16;;;;;;;5.72;5.13;;;;;;;6.13;65.30;99286.19;5052680;28;20046;-61
2021/03/27 05:25:15;;;;;;;9.00;5.10;;;;;;;6.06;65.00;99295.63;5052472;28;20408;-61
2021/03/27 05:27:49;;;;;;;6.40;4.68;;;;;;;6.09;65.02;99300.59;5052518;28;20041;-62
2021/03/27 05:30:24;;;;;;;6.75;5.32;;;;;;;6.15;64.74;99305.22;5062793;28;20449;-64
2021/03/27 05:33:09;;;;;;;7.78;4.90;;;;;;;6.14;64.55;99311.44;5068746;28;20052;-62
2021/03/27 05:35:43;;;;;;;11.35;5.68;;;;;;;6.07;64.69;99320.91;5059983;28;20041;-61
2021/03/27 05:38:17;;;;;;;7.65;4.22;;;;;;;6.11;64.03;99324.88;5053338;28;20407;-60
2021/03/27 05:41:15;;;;;;;4.25;3.25;;;;;;;5.94;63.63;99316.84;5052555;28;20510;-62
2021/03/27 05:44:29;;;;;;;9.05;3.28;;;;;;;6.01;63.52;99326.75;5051045;28;20423;-61
2021/03/27 05:47:30;;;;;;;6.40;3.33;;;;;;;5.94;63.45;99345.72;4990834;28;20058;-61
2021/03/27 05:50:22;;;;;;;5.63;2.88;;;;;;;5.97;63.33;99346.41;5051668;28;20085;-61
2021/03/27 05:53:06;;;;;;;6.90;2.90;;;;;;;6.08;63.28;99351.41;5014162;28;20056;-60
2021/03/27 05:55:52;;;;;;;2.97;1.90;;;;;;;6.15;62.78;99350.66;5050582;28;20053;-60
2021/03/27 05:58:35;;;;;;;4.65;2.10;;;;;;;6.08;62.61;99364.53;5050465;28;20095;-60
2021/03/27 06:01:18;;;;;;;5.45;1.90;;;;;;;6.00;62.20;99361.84;5051950;28;20465;-61
2021/03/27 06:04:18;;;;;;;3.45;1.92;;;;;;;6.08;62.14;99368.00;5052212;28;20041;-61
2021/03/27 06:07:28;;;;;;;5.32;2.22;;;;;;;6.09;61.67;99374.91;5050909;28;20068;-63
2021/03/27 06:10:21;;;;;;;4.13;2.05;;;;;;;6.12;61.18;99387.75;5051942;28;20071;-61
2021/03/27 06:13:19;;;;;;;4.88;1.65;;;;;;;6.08;61.21;99378.50;5052927;28;20343;-61
2021/03/27 06:16:12;;;;;;;4.88;2.05;;;;;;;6.17;61.21;99387.28;5051438;28;20064;-61
2021/03/27 06:19:06;;;;;;;4.10;1.90;;;;;;;6.18;61.01;99384.50;5052607;28;20091;-61
2021/03/27 06:21:47;;;;;;;5.40;1.77;;;;;;;6.12;60.42;99397.38;5052419;28;20072;-60
2021/03/27 06:24:43;;;;;;;5.05;2.33;;;;;;;6.08;59.37;99399.50;5052092;28;20102;-61
2021/03/27 06:27:29;;;;;;;3.30;1.20;;;;;;;6.09;58.91;99403.78;5052319;28;20106;-60
2021/03/27 06:30:36;;;;;;;3.22;1.60;;;;;;;6.12;58.14;99405.25;5050860;28;20570;-60
2021/03/27 06:33:24;;;;;;;3.90;1.55;;;;;;;6.12;58.39;99400.84;5052099;28;20037;-61
2021/03/27 06:36:25;;;;;;;4.28;1.45;;;;;;;6.17;58.36;99405.66;5051750;28;20502;-60
2021/03/27 06:39:24;;;;;;;13.10;2.47;;;;;;;6.27;57.83;99395.91;5045869;28;20584;-61
2021/03/27 06:42:04;;;;;;;5.38;1.58;;;;;;;6.30;57.53;99413.16;5051418;28;20052;-59
2021/03/27 06:44:55;;;;;;;8.02;1.95;;;;;;;6.43;57.36;99410.97;5051531;28;20638;-60
2021/03/27 06:47:55;;;;;;;2.97;1.70;;;;;;;6.42;56.32;99412.78;5051748;28;20517;-60
2021/03/27 06:50:42;;;;;;;2.78;1.25;;;;;;;6.45;56.17;99427.41;4997360;28;20061;-61
2021/03/27 06:53:24;;;;;;;4.13;1.45;;;;;;;6.60;56.08;99422.44;5051905;28;20036;-61
2021/03/27 06:56:27;;;;;;;3.00;1.40;;;;;;;6.70;55.91;99429.25;5051763;28;20037;-60
2021/03/27 06:59:13;;;;;;;4.47;1.60;;;;;;;6.83;56.03;99438.56;5049820;28;20056;-62
2021/03/27 07:02:19;;;;;;;4.05;1.60;;;;;;;6.87;56.05;99427.59;5050914;28;20099;-62
2021/03/27 07:05:48;;;;;;;5.30;1.98;;;;;;;6.91;55.99;99443.88;5051263;28;20099;-61
2021/03/27 07:08:48;;;;;;;4.65;1.70;;;;;;;6.89;56.04;99438.75;5051357;28;20044;-58
2021/03/27 07:11:42;;;;;;;4.45;1.83;;;;;;;6.91;56.38;99436.81;5021475;28;20053;-59
2021/03/27 07:14:49;;;;;;;10.32;1.92;;;;;;;6.93;55.95;99432.22;5055212;28;20099;-59
2021/03/27 07:17:43;;;;;;;4.82;1.50;;;;;;;6.68;56.65;99439.09;5055320;28;20124;-58
2021/03/27 07:20:28;;;;;;;4.30;2.03;;;;;;;6.82;56.93;99443.00;5053926;28;20055;-61
2021/03/27 07:23:27;;;;;;;4.07;1.83;;;;;;;6.86;56.49;99446.16;5054812;28;20037;-60
2021/03/27 07:26:23;;;;;;;5.95;2.05;;;;;;;6.99;56.50;99446.56;5054830;28;20098;-60
2021/03/27 07:29:30;;;;;;;5.28;1.65;;;;;;;7.15;56.21;99436.16;5048185;28;20061;-60
2021/03/27 07:32:19;;;;;;;8.93;2.00;;;;;;;7.28;56.23;99437.53;5054995;28;20380;-61
2021/03/27 07:35:08;;;;;;;5.07;1.95;;;;;;;7.32;55.21;99425.72;5054685;28;20045;-60
2021/03/27 07:38:07;;;;;;;4.53;1.95;;;;;;;7.40;55.30;99441.53;5054663;28;20055;-60
2021/03/27 07:40:40;;;;;;;5.65;1.67;;;;;;;7.57;54.85;99445.06;5054959;28;20407;-61
2021/03/27 07:43:46;;;;;;;4.97;1.60;;;;;;;7.72;54.25;99453.22;5054439;28;20075;-60
2021/03/27 07:46:49;;;;;;;5.93;1.67;;;;;;;7.81;54.21;99454.88;5037972;28;20061;-62
2021/03/27 07:49:55;;;;;;;8.82;1.90;;;;;;;7.86;53.11;99469.22;5042029;28;20080;-61
2021/03/27 07:52:32;;;;;;;10.77;2.65;;;;;;;7.79;53.51;99470.00;5054247;28;20052;-61
2021/03/27 07:55:43;;;;;;;7.32;2.58;;;;;;;7.79;53.06;99489.25;5054136;28;20051;-58
2021/03/27 07:58:27;;;;;;;4.88;1.80;;;;;;;7.67;52.88;99485.25;5052008;28;20136;-59
2021/03/27 08:01:01;;;;;;;;;;;;;;;7.55;53.02;99491.75;5054578;28;20045;-60
2021/03/27 08:04:19;;;;;;;5.75;1.83;;;;;;;7.63;53.03;99487.38;5054119;28;19921;-60
2021/03/27 08:06:51;;;;;;;4.60;1.42;;;;;;;7.48;52.59;99493.38;5037450;28;20068;-59
2021/03/27 08:09:35;;;;;;;6.95;2.10;;;;;;;7.37;53.07;99497.91;5052919;28;20049;-60
2021/03/27 08:12:22;;;;;;;6.22;1.70;;;;;;;7.51;53.49;99503.56;5054309;28;20483;-60
2021/03/27 08:15:22;;;;;;;5.82;1.65;;;;;;;7.88;52.77;99501.47;5054314;28;20052;-58
2021/03/27 08:18:02;;;;;;;8.15;2.25;;;;;;;8.00;51.06;99503.81;5053676;28;20129;-60
2021/03/27 08:20:58;;;;;;;6.95;1.80;;;;;;;7.92;50.88;99515.97;5054177;28;20041;-60
2021/03/27 08:23:48;;;;;;;7.80;1.20;;;;;;;7.89;50.71;99524.19;5053269;28;20102;-60
2021/03/27 08:26:52;;;;;;;9.93;2.22;;;;;;;8.19;50.68;99524.63;5053516;28;20110;-59
2021/03/27 08:29:55;;;;;;;8.38;2.00;;;;;;;8.53;50.06;99516.69;5052129;28;20053;-60
2021/03/27 08:32:49;;;;;;;6.72;1.92;;;;;;;8.58;49.23;99527.56;5053723;28;20041;-59
2021/03/27 08:35:27;;;;;;;4.82;1.90;;;;;;;8.55;49.28;99525.25;5052554;28;20053;-59
2021/03/27 08:38:22;;;;;;;7.93;1.67;;;;;;;8.62;49.33;99528.06;5053567;28;20045;-59
2021/03/27 08:41:24;;;;;;;6.55;1.83;;;;;;;8.73;48.94;99532.19;5054224;28;20095;-59
2021/03/27 08:44:22;;;;;;;5.88;1.80;;;;;;;8.67;49.34;99544.22;5054203;28;20041;-62
2021/03/27 08:46:59;;;;;;;6.28;2.20;;;;;;;8.73;49.05;99532.19;5052855;28;20140;-64
2021/03/27 08:49:47;;;;;;;7.88;1.80;;;;;;;8.92;49.03;99534.53;5054146;28;20403;-64
2021/03/27 08:52:51;;;;;;;7.93;1.77;;;;;;;9.20;48.21;99537.66;5053257;28;20049;-64
2021/03/27 08:55:40;;;;;;;7.25;1.95;;;;;;;9.22;48.11;99538.31;5022280;28;20057;-63
2021/03/27 08:58:27;;;;;;;6.47;1.80;;;;;;;9.26;48.16;99533.53;5052934;28;20052;-63
2021/03/27 09:01:21;;;;;;;5.07;1.35;;;;;;;9.01;48.16;99545.91;5053053;28;20044;-63
2021/03/27 09:04:20;;;;;;;6.35;2.13;;;;;;;9.12;48.49;99537.66;5053044;28;20041;-63
2021/03/27 09:07:41;;;;;;;9.93;2.00;;;;;;;9.04;48.04;99540.31;5052670;28;20127;-61
2021/03/27 09:10:29;;;;;;;7.72;1.98;;;;;;;9.00;48.01;99534.53;4991297;28;20046;-63
2021/03/27 09:13:33;;;;;;;10.65;2.65;;;;;;;8.92;47.81;99535.34;4991598;28;20491;-62
2021/03/27 09:16:35;;;;;;;7.15;2.15;;;;;;;9.28;47.97;99532.38;5048303;28;20119;-62
2021/03/27 09:22:44;;;;;;;4.88;1.67;;;;;;;9.35;47.02;99543.09;5051017;28;20045;-64
2021/03/27 09:25:20;;;;;;;6.90;1.80;;;;;;;9.51;46.83;99548.38;5052530;28;20125;-64
2021/03/27 09:28:19;;;;;;;6.78;1.98;;;;;;;9.73;46.13;99546.00;5052494;28;20384;-64
2021/03/27 09:31:02;;;;;;;8.73;1.77;;;;;;;9.74;45.75;99558.19;5037624;28;20452;-64
2021/03/27 09:33:33;;;;;;;5.78;1.63;;;;;;;9.72;45.44;99562.84;5051533;28;20049;-64
2021/03/27 09:36:24;;;;;;;6.13;1.70;;;;;;;9.43;46.32;99575.59;5050866;28;20049;-64
2021/03/27 09:39:01;;;;;;;7.03;1.45;;;;;;;9.31;46.97;99555.81;5052163;28;20037;-64
2021/03/27 09:41:53;;;;;;;7.32;1.80;;;;;;;9.42;47.21;99570.44;5051079;28;20692;-64
2021/03/27 09:44:44;;;;;;;6.05;1.38;;;;;;;9.49;47.31;99576.72;5050958;28;20045;-64
2021/03/27 09:47:46;;;;;;;8.85;2.35;;;;;;;9.79;47.07;99567.25;5051045;28;20045;-64
2021/03/27 09:50:20;;;;;;;8.30;2.97;;;;;;;10.08;46.00;99565.84;5022294;28;20053;-64
2021/03/27 09:53:02;;;;;;;;;;;;;;;10.21;45.94;99586.47;5052658;28;20036;-63
2021/03/27 09:55:42;;;;;;;3.97;1.40;;;;;;;10.36;45.72;99604.09;5052094;28;19920;-64
2021/03/27 09:58:19;;;;;;;6.63;1.60;;;;;;;10.12;46.59;99601.50;5052068;28;20376;-63
2021/03/27 10:01:12;;;;;;;6.80;1.65;;;;;;;10.10;46.97;99592.94;5050510;28;20499;-61
2021/03/27 10:03:45;;;;;;;4.65;1.50;;;;;;;10.47;46.70;99610.00;5053286;28;20045;-61
2021/03/27 10:06:46;;;;;;;6.82;2.03;;;;;;;10.39;46.59;99616.16;5052990;28;20387;-61
2021/03/27 10:09:29;;;;;;;8.07;2.15;;;;;;;10.37;46.45;99618.16;5050087;28;20275;-61
2021/03/27 10:12:01;;;;;;;5.85;1.85;;;;;;;10.65;46.51;99597.34;5051939;28;20037;-61
2021/03/27 10:14:34;;;;;;;8.30;2.30;;;;;;;10.62;45.64;99621.50;5051622;28;20048;-61
2021/03/27 10:17:14;;;;;;;4.50;1.42;;;;;;;10.64;45.05;99595.69;5052035;28;20128;-62
2021/03/27 10:19:52;;;;;;;6.25;1.77;;;;;;;10.58;45.05;99609.63;5051812;28;20056;-62
2021/03/27 10:22:28;;;;;;;6.10;1.95;;;;;;;10.48;45.33;99604.53;5051839;28;20399;-62
2021/03/27 10:25:09;;;;;;;9.73;2.08;;;;;;;10.41;45.37;99600.97;5050422;28;20055;-62
2021/03/27 10:27:59;;;;;;;4.72;1.50;;;;;;;10.10;45.94;99614.06;5051569;28;20041;-62
2021/03/27 10:30:39;;;;;;;6.63;1.70;;;;;;;9.83;46.71;99615.28;5050862;28;20449;-62
2021/03/27 10:33:15;;;;;;;6.40;1.65;;;;;;;9.64;47.30;99630.50;5052043;28;20045;-63
2021/03/27 10:36:19;;;;;;;5.88;1.85;;;;;;;9.59;47.59;99667.13;5051393;28;20507;-62
2021/03/27 10:39:02;;;;;;;7.63;1.88;;;;;;;9.13;50.69;99661.47;5051658;28;20056;-62
2021/03/27 10:41:56;;;;;;;5.47;1.90;;;;;;;8.85;52.73;99655.63;5051719;28;20171;-63
2021/03/27 10:44:36;;;;;;;6.18;2.42;;;;;;;9.01;53.02;99652.22;5051854;28;20064;-62
2021/03/27 10:47:05;;;;;;;6.65;1.80;;;;;;;9.06;52.86;99665.75;5055556;28;20036;-62
2021/03/27 10:49:44;;;;;;;8.98;2.42;;;;;;;9.40;52.57;99659.53;5055408;28;20048;-62
2021/03/27 10:52:42;;;;;;;10.52;2.25;;;;;;;9.55;51.97;99659.69;5055590;28;20041;-62
2021/03/27 10:56:02;;;;;;;7.97;1.83;;;;;;;10.03;49.18;99661.47;5030862;28;20474;-62
2021/03/27 10:58:42;;;;;;;6.72;1.65;;;;;;;10.52;47.96;99645.50;5042219;28;20061;-61
2021/03/27 11:01:37;;;;;;;7.85;1.88;;;;;;;10.74;47.25;99661.63;5053982;28;20384;-60
2021/03/27 11:04:30;;;;;;;7.28;1.90;;;;;;;10.81;46.92;99673.94;5055171;28;20123;-61
2021/03/27 11:07:18;;;;;;;6.05;1.80;;;;;;;10.84;47.19;99667.50;5055221;28;20048;-61
2021/03/27 11:10:21;;;;;;;5.65;2.00;;;;;;;10.67;47.56;99666.75;5054890;28;20057;-61
2021/03/27 11:13:18;;;;;;;6.45;1.55;;;;;;;10.74;47.38;99665.09;5053820;28;20055;-60
2021/03/27 11:16:15;;;;;;;5.22;1.30;;;;;;;10.82;47.41;99657.13;5054013;28;20053;-60
2021/03/27 11:19:01;;;;;;;6.10;1.50;;;;;;;10.66;47.63;99663.28;5054862;28;20045;-59
2021/03/27 11:21:53;;;;;;;3.58;1.45;;;;;;;10.70;48.30;99666.44;5054884;28;20049;-59
2021/03/27 11:24:36;;;;;;;5.47;1.70;;;;;;;10.99;47.24;99668.44;5054625;28;20040;-60
2021/03/27 11:27:21;;;;;;;6.00;1.58;;;;;;;11.08;46.83;99654.13;5054880;28;20060;-60
2021/03/27 11:29:59;;;;;;;4.60;1.90;;;;;;;10.95;45.56;99661.84;5054822;28;20040;-60
2021/03/27 11:32:33;;;;;;;9.25;2.15;;;;;;;10.99;46.39;99670.25;5053309;28;20495;-61
2021/03/27 11:35:06;;;;;;;7.28;1.95;;;;;;;10.97;46.33;99677.53;5054407;28;20064;-60
2021/03/27 11:37:41;;;;;;;5.22;1.42;;;;;;;10.86;46.09;99671.63;5054361;28;20041;-60
2021/03/27 11:40:23;;;;;;;6.13;1.77;;;;;;;10.87;47.62;99675.91;5053010;28;20053;-61
2021/03/27 11:43:02;;;;;;;6.10;1.80;;;;;;;10.89;48.42;99670.44;5054995;28;20045;-60
2021/03/27 11:45:34;;;;;;;8.70;2.30;;;;;;;10.60;48.73;99679.00;5053259;28;20052;-58
2021/03/27 11:48:06;;;;;;;6.57;1.70;;;;;;;10.53;49.07;99676.25;5054256;28;20452;-59
2021/03/27 11:50:42;;;;;;;8.30;2.45;;;;;;;10.55;49.13;99691.94;5054509;28;20052;-59
2021/03/27 11:53:18;;;;;;;5.13;1.77;;;;;;;10.46;50.59;99690.31;5054198;28;20403;-59
2021/03/27 11:56:00;;;;;;;5.72;2.10;;;;;;;10.38;51.78;99688.50;5054061;28;20052;-59
2021/03/27 11:59:41;;;;;;;9.73;2.90;;;;;;;10.41;52.50;99691.66;5053138;28;20044;-59
2021/03/27 12:01:29;;;;;;;8.98;3.70;;;;;;;10.59;52.59;99691.41;5053882;28;20309;-59
2021/03/27 12:04:15;;;;;;;9.65;2.20;;;;;;;10.36;51.39;99690.47;5052934;28;20044;-60
2021/03/27 12:07:01;;;;;;;6.88;2.25;;;;;;;10.46;51.39;99677.09;5054269;28;20045;-60
2021/03/27 12:09:40;;;;;;;6.70;2.35;;;;;;;10.44;51.40;99666.66;5053787;28;20049;-60
2021/03/27 12:12:19;;;;;;;4.07;2.30;;;;;;;10.46;49.96;99687.66;5054065;28;20116;-60
2021/03/27 12:14:53;;;;;;;7.70;2.47;;;;;;;10.65;49.46;99676.66;5053052;28;20076;-59
2021/03/27 12:17:29;;;;;;;5.90;2.33;;;;;;;11.10;49.31;99677.78;5053719;28;20052;-61
2021/03/27 12:20:13;;;;;;;4.93;1.65;;;;;;;11.23;47.15;99667.47;5052570;28;20522;-60
2021/03/27 12:22:46;;;;;;;5.93;2.00;;;;;;;11.22;46.59;99671.06;5053956;28;20661;-60
2021/03/27 12:25:30;;;;;;;4.10;1.90;;;;;;;11.37;45.32;99673.81;5053686;28;20049;-59
2021/03/27 12:28:06;;;;;;;4.75;2.00;;;;;;;11.21;44.63;99674.72;5052738;28;20053;-60
2021/03/27 12:30:44;;;;;;;5.70;1.77;;;;;;;10.97;45.09;99672.22;5053817;28;20048;-61
2021/03/27 12:33:15;;;;;;;7.55;2.30;;;;;;;10.63;45.83;99689.25;5054099;28;20048;-61
2021/03/27 12:35:50;;;;;;;6.03;1.70;;;;;;;10.38;46.18;99688.50;5054472;28;20098;-59
2021/03/27 12:38:28;;;;;;;8.15;2.47;;;;;;;10.20;47.10;99691.31;5053953;28;20052;-62
2021/03/27 12:41:04;;;;;;;5.90;1.83;;;;;;;10.30;48.47;99678.78;5053550;28;20045;-60
2021/03/27 12:43:33;;;;;;;9.38;2.22;;;;;;;10.08;47.96;99693.50;5053335;28;20060;-58
2021/03/27 12:46:15;;;;;;;6.50;2.03;;;;;;;9.99;48.05;99683.09;5053290;28;20052;-59
2021/03/27 12:49:00;;;;;;;6.57;2.00;;;;;;;9.93;48.38;99692.53;5053198;28;20049;-59
2021/03/27 12:51:38;;;;;;;7.63;1.95;;;;;;;9.81;48.02;99676.19;5052520;28;20048;-60
2021/03/27 12:54:19;;;;;;;7.35;2.17;;;;;;;9.63;48.48;99692.22;5053663;28;20045;-61
2021/03/27 12:57:29;;;;;;;7.47;1.90;;;;;;;9.50;48.43;99677.84;5053777;28;20045;-59
2021/03/27 13:00:27;;;;;;;5.72;2.00;;;;;;;9.38;48.54;99695.81;5053531;28;20041;-58